Time,TemperatureF,DewpointF,PressureIn,WindDirection,WindDirectionDegrees,WindSpeedMPH,WindSpeedGustMPH,Humidity,HourlyPrecipIn,Conditions,Clouds,dailyrainin,SoftwareType,DateUTC
2013-04-20 00:02:00,64.7,64.4,29.73,WNW,297,0.0,0.0,99,0.00,,,0.47,LWC V2.00 B2112,2013-04-20 04:02:00,
2013-04-20 00:07:00,64.7,64.1,29.73,West,278,0.0,0.0,98,0.00,,,0.48,LWC V2.00 B2112,2013-04-20 04:07:00,
2013-04-20 00:12:00,64.7,64.4,29.73,South,178,0.0,5.0,99,0.00,,,0.48,LWC V2.00 B2112,2013-04-20 04:12:00,
2013-04-20 00:17:00,64.5,63.9,29.74,NE,34,0.0,0.0,98,0.00,,,0.48,LWC V2.00 B2112,2013-04-20 04:17:00,
2013-04-20 00:22:00,64.5,63.9,29.74,SE,144,0.0,0.0,98,0.00,,,0.48,LWC V2.00 B2112,2013-04-20 04:22:00,
2013-04-20 00:27:00,64.5,63.9,29.74,SW,230,0.0,0.0,98,0.00,,,0.48,LWC V2.00 B2112,2013-04-20 04:27:00,
2013-04-20 00:32:00,64.3,63.7,29.74,WNW,286,0.0,4.0,98,0.00,,,0.49,LWC V2.00 B2112,2013-04-20 04:32:00,
2013-04-20 00:37:00,64.2,63.6,29.74,SW,231,3.0,3.0,98,0.00,,,0.00,LWC V2.00 B2112,2013-04-20 04:37:00,
2013-04-20 00:42:00,64.2,63.6,29.74,NNW,344,0.0,5.0,98,0.00,,,0.00,LWC V2.00 B2112,2013-04-20 04:42:00,
2013-04-20 00:47:00,64.0,63.4,29.75,SW,214,0.0,5.0,98,0.00,,,0.00,LWC V2.00 B2112,2013-04-20 04:47:00,
2013-04-20 00:52:00,64.0,63.4,29.75,SSW,193,0.0,3.0,98,0.00,,,0.01,LWC V2.00 B2112,2013-04-20 04:52:00,
2013-04-20 00:57:00,63.9,63.3,29.75,SSE,163,0.0,5.0,98,0.00,,,0.01,LWC V2.00 B2112,2013-04-20 04:57:00,
2013-04-20 01:02:00,63.9,63.3,29.75,West,270,0.0,9.0,98,0.06,,,0.02,LWC V2.00 B2112,2013-04-20 05:02:00,
2013-04-20 01:07:00,63.7,63.1,29.75,South,190,0.0,0.0,98,0.06,,,0.02,LWC V2.00 B2112,2013-04-20 05:07:00,
2013-04-20 01:12:00,63.4,62.8,29.75,West,260,0.0,0.0,98,0.05,,,0.03,LWC V2.00 B2112,2013-04-20 05:12:00,
2013-04-20 01:17:00,62.9,62.0,29.77,SW,229,0.0,9.0,97,0.05,,,0.03,LWC V2.00 B2112,2013-04-20 05:17:00,
2013-04-20 01:22:00,62.3,61.1,29.77,NE,53,0.0,0.0,96,0.06,,,0.04,LWC V2.00 B2112,2013-04-20 05:22:00,
2013-04-20 01:27:00,60.7,58.1,29.77,East,86,0.0,4.0,91,0.12,,,0.05,LWC V2.00 B2112,2013-04-20 05:27:00,
2013-04-20 01:32:00,58.9,55.7,29.78,SW,214,0.0,4.0,89,0.12,,,0.06,LWC V2.00 B2112,2013-04-20 05:32:00,
2013-04-20 01:37:00,57.6,54.1,29.78,SSW,211,0.0,4.0,88,0.09,,,0.06,LWC V2.00 B2112,2013-04-20 05:37:00,
2013-04-20 01:42:00,56.6,53.4,29.78,SW,234,0.0,1.0,89,0.05,,,0.06,LWC V2.00 B2112,2013-04-20 05:42:00,
2013-04-20 01:47:00,56.2,53.6,29.79,WNW,283,0.0,0.0,91,0.04,,,0.06,LWC V2.00 B2112,2013-04-20 05:47:00,
2013-04-20 01:52:00,56.0,53.7,29.79,West,278,0.0,0.0,92,0.00,,,0.06,LWC V2.00 B2112,2013-04-20 05:52:00,
2013-04-20 01:57:00,55.9,53.9,29.79,WSW,251,0.0,0.0,93,0.00,,,0.07,LWC V2.00 B2112,2013-04-20 05:57:00,
2013-04-20 02:02:00,55.9,54.2,29.79,WSW,250,0.0,0.0,94,0.00,,,0.07,LWC V2.00 B2112,2013-04-20 06:02:00,
2013-04-20 02:07:00,55.9,54.5,29.79,SW,220,0.0,0.0,95,0.00,,,0.07,LWC V2.00 B2112,2013-04-20 06:07:00,
2013-04-20 02:12:00,55.9,54.5,29.79,WSW,248,0.0,0.0,95,0.00,,,0.07,LWC V2.00 B2112,2013-04-20 06:12:00,
2013-04-20 02:17:00,55.9,54.8,29.79,SSW,210,0.0,0.0,96,0.00,,,0.07,LWC V2.00 B2112,2013-04-20 06:17:00,
2013-04-20 02:22:00,56.0,54.9,29.79,SW,227,0.0,0.0,96,0.00,,,0.07,LWC V2.00 B2112,2013-04-20 06:22:00,
2013-04-20 02:27:00,56.0,54.9,29.79,WNW,297,0.0,0.0,96,0.00,,,0.07,LWC V2.00 B2112,2013-04-20 06:27:00,
2013-04-20 02:32:00,55.9,54.8,29.79,NNW,342,0.0,0.0,96,0.00,,,0.07,LWC V2.00 B2112,2013-04-20 06:32:00,
2013-04-20 02:37:00,55.9,54.8,29.79,North,4,0.0,0.0,96,0.00,,,0.07,LWC V2.00 B2112,2013-04-20 06:37:00,
2013-04-20 02:42:00,55.9,55.1,29.79,West,266,0.0,0.0,97,0.00,,,0.07,LWC V2.00 B2112,2013-04-20 06:42:00,
2013-04-20 02:47:00,55.7,54.9,29.80,North,8,0.0,0.0,97,0.00,,,0.07,LWC V2.00 B2112,2013-04-20 06:47:00,
2013-04-20 02:52:00,55.3,53.9,29.80,WSW,254,0.0,0.0,95,0.00,,,0.07,LWC V2.00 B2112,2013-04-20 06:52:00,
2013-04-20 02:57:00,55.0,53.6,29.80,North,1,0.0,0.0,95,0.00,,,0.07,LWC V2.00 B2112,2013-04-20 06:57:00,
2013-04-20 03:02:00,54.7,53.3,29.80,NW,313,0.0,0.0,95,0.00,,,0.07,LWC V2.00 B2112,2013-04-20 07:02:00,
2013-04-20 03:07:00,54.5,53.1,29.80,WNW,302,0.0,0.0,95,0.00,,,0.07,LWC V2.00 B2112,2013-04-20 07:07:00,
2013-04-20 03:12:00,54.5,53.4,29.80,WNW,302,0.0,0.0,96,0.00,,,0.07,LWC V2.00 B2112,2013-04-20 07:12:00,
2013-04-20 03:17:00,54.4,53.3,29.82,WNW,302,0.0,0.0,96,0.00,,,0.07,LWC V2.00 B2112,2013-04-20 07:17:00,
2013-04-20 03:22:00,54.1,53.0,29.82,East,89,0.0,0.0,96,0.00,,,0.07,LWC V2.00 B2112,2013-04-20 07:22:00,
2013-04-20 03:27:00,53.8,52.1,29.82,East,91,0.0,0.0,94,0.00,,,0.07,LWC V2.00 B2112,2013-04-20 07:27:00,
2013-04-20 03:32:00,53.1,50.8,29.83,WNW,300,0.0,0.0,92,0.00,,,0.07,LWC V2.00 B2112,2013-04-20 07:32:00,
2013-04-20 03:37:00,52.6,50.3,29.83,NW,307,0.0,0.0,92,0.00,,,0.07,LWC V2.00 B2112,2013-04-20 07:37:00,
2013-04-20 03:42:00,52.3,50.0,29.83,NW,309,0.0,0.0,92,0.00,,,0.07,LWC V2.00 B2112,2013-04-20 07:42:00,
2013-04-20 03:47:00,52.0,49.2,29.84,West,278,0.0,0.0,90,0.00,,,0.07,LWC V2.00 B2112,2013-04-20 07:47:00,
2013-04-20 03:52:00,51.3,47.6,29.84,North,9,0.0,4.0,87,0.00,,,0.07,LWC V2.00 B2112,2013-04-20 07:52:00,
2013-04-20 03:57:00,51.0,47.3,29.84,WNW,286,0.0,2.0,87,0.00,,,0.07,LWC V2.00 B2112,2013-04-20 07:57:00,
2013-04-20 04:02:00,50.8,47.1,29.84,North,0,0.0,0.0,87,0.00,,,0.07,LWC V2.00 B2112,2013-04-20 08:02:00,
2013-04-20 04:07:00,50.7,47.0,29.84,NW,310,0.0,0.0,87,0.00,,,0.07,LWC V2.00 B2112,2013-04-20 08:07:00,
2013-04-20 04:12:00,50.4,46.7,29.84,SSW,206,0.0,0.0,87,0.00,,,0.07,LWC V2.00 B2112,2013-04-20 08:12:00,
2013-04-20 04:17:00,50.4,46.7,29.85,NNW,337,0.0,0.0,87,0.00,,,0.07,LWC V2.00 B2112,2013-04-20 08:17:00,
2013-04-20 04:22:00,50.1,45.8,29.85,NW,304,0.0,0.0,85,0.00,,,0.07,LWC V2.00 B2112,2013-04-20 08:22:00,
2013-04-20 04:27:00,50.1,46.4,29.85,SSW,206,0.0,0.0,87,0.00,,,0.07,LWC V2.00 B2112,2013-04-20 08:27:00,
2013-04-20 04:32:00,49.9,46.2,29.85,West,260,0.0,0.0,87,0.00,,,0.07,LWC V2.00 B2112,2013-04-20 08:32:00,
2013-04-20 04:37:00,49.9,46.5,29.85,NE,49,0.0,0.0,88,0.00,,,0.07,LWC V2.00 B2112,2013-04-20 08:37:00,
2013-04-20 04:42:00,49.8,46.1,29.85,NW,323,0.0,0.0,87,0.00,,,0.07,LWC V2.00 B2112,2013-04-20 08:42:00,
2013-04-20 04:47:00,49.6,46.2,29.86,NW,323,0.0,0.0,88,0.00,,,0.07,LWC V2.00 B2112,2013-04-20 08:47:00,
2013-04-20 04:52:00,49.4,45.4,29.86,WSW,255,0.0,0.0,86,0.00,,,0.07,LWC V2.00 B2112,2013-04-20 08:52:00,
2013-04-20 04:57:00,49.4,45.7,29.86,WNW,293,0.0,0.0,87,0.00,,,0.07,LWC V2.00 B2112,2013-04-20 08:57:00,
2013-04-20 05:02:00,49.1,44.2,29.87,NW,323,0.0,0.0,83,0.00,,,0.07,LWC V2.00 B2112,2013-04-20 09:02:00,
2013-04-20 05:07:00,48.9,43.6,29.87,West,278,0.0,0.0,82,0.00,,,0.07,LWC V2.00 B2112,2013-04-20 09:07:00,
2013-04-20 05:12:00,48.8,43.9,29.87,West,276,0.0,0.0,83,0.00,,,0.07,LWC V2.00 B2112,2013-04-20 09:12:00,
2013-04-20 05:17:00,48.8,43.6,29.88,North,351,0.0,0.0,82,0.00,,,0.07,LWC V2.00 B2112,2013-04-20 09:17:00,
2013-04-20 05:22:00,48.8,44.5,29.88,WNW,284,0.0,0.0,85,0.00,,,0.07,LWC V2.00 B2112,2013-04-20 09:22:00,
2013-04-20 05:27:00,48.6,43.0,29.88,NNW,344,0.0,0.0,81,0.00,,,0.07,LWC V2.00 B2112,2013-04-20 09:27:00,
2013-04-20 05:32:00,48.5,42.9,29.88,West,268,0.0,0.0,81,0.00,,,0.07,LWC V2.00 B2112,2013-04-20 09:32:00,
2013-04-20 05:37:00,48.5,42.3,29.88,SSW,193,0.0,0.0,79,0.00,,,0.07,LWC V2.00 B2112,2013-04-20 09:37:00,
2013-04-20 05:42:00,48.5,42.0,29.88,West,268,0.0,0.0,78,0.00,,,0.07,LWC V2.00 B2112,2013-04-20 09:42:00,
2013-04-20 05:47:00,48.5,42.6,29.89,West,268,0.0,0.0,80,0.00,,,0.07,LWC V2.00 B2112,2013-04-20 09:47:00,
2013-04-20 05:52:00,48.3,42.4,29.89,West,274,0.0,0.0,80,0.00,,,0.07,LWC V2.00 B2112,2013-04-20 09:52:00,
2013-04-20 05:57:00,48.2,42.3,29.89,West,271,0.0,0.0,80,0.00,,,0.07,LWC V2.00 B2112,2013-04-20 09:57:00,
2013-04-20 06:02:00,47.9,42.7,29.89,West,273,0.0,0.0,82,0.00,,,0.07,LWC V2.00 B2112,2013-04-20 10:02:00,
2013-04-20 06:07:00,47.7,42.5,29.89,SW,214,0.0,0.0,82,0.00,,,0.07,LWC V2.00 B2112,2013-04-20 10:07:00,
2013-04-20 06:12:00,47.4,40.6,29.89,WSW,258,0.0,0.0,77,0.00,,,0.07,LWC V2.00 B2112,2013-04-20 10:12:00,
2013-04-20 06:17:00,47.4,41.5,29.90,NNE,23,0.0,0.0,80,0.00,,,0.07,LWC V2.00 B2112,2013-04-20 10:17:00,
2013-04-20 06:22:00,47.4,41.5,29.90,WNW,299,0.0,0.0,80,0.00,,,0.07,LWC V2.00 B2112,2013-04-20 10:22:00,
2013-04-20 06:27:00,47.3,41.4,29.90,WNW,299,0.0,0.0,80,0.00,,,0.07,LWC V2.00 B2112,2013-04-20 10:27:00,
2013-04-20 06:32:00,47.1,41.6,29.92,WNW,299,0.0,0.0,81,0.00,,,0.07,LWC V2.00 B2112,2013-04-20 10:32:00,
2013-04-20 06:37:00,47.0,41.8,29.92,WNW,299,0.0,0.0,82,0.00,,,0.07,LWC V2.00 B2112,2013-04-20 10:37:00,
2013-04-20 06:42:00,46.7,41.2,29.92,WNW,296,0.0,0.0,81,0.00,,,0.07,LWC V2.00 B2112,2013-04-20 10:42:00,
2013-04-20 06:47:00,46.7,41.8,29.92,SW,221,0.0,0.0,83,0.00,,,0.07,LWC V2.00 B2112,2013-04-20 10:47:00,
2013-04-20 06:52:00,46.5,41.6,29.92,SW,230,0.0,0.0,83,0.00,,,0.07,LWC V2.00 B2112,2013-04-20 10:52:00,
2013-04-20 06:57:00,46.4,41.5,29.92,WNW,295,0.0,0.0,83,0.00,,,0.07,LWC V2.00 B2112,2013-04-20 10:57:00,
2013-04-20 07:02:00,46.2,41.3,29.93,WNW,295,0.0,0.0,83,0.00,,,0.07,LWC V2.00 B2112,2013-04-20 11:02:00,
2013-04-20 07:07:00,46.2,41.9,29.93,WNW,295,0.0,0.0,85,0.00,,,0.07,LWC V2.00 B2112,2013-04-20 11:07:00,
2013-04-20 07:12:00,46.2,41.9,29.93,WNW,295,0.0,0.0,85,0.00,,,0.07,LWC V2.00 B2112,2013-04-20 11:12:00,
2013-04-20 07:17:00,46.1,41.8,29.94,WNW,295,0.0,0.0,85,0.00,,,0.07,LWC V2.00 B2112,2013-04-20 11:17:00,
2013-04-20 07:22:00,46.1,41.5,29.94,WNW,295,0.0,0.0,84,0.00,,,0.07,LWC V2.00 B2112,2013-04-20 11:22:00,
2013-04-20 07:27:00,46.1,41.2,29.94,WNW,294,0.0,0.0,83,0.00,,,0.07,LWC V2.00 B2112,2013-04-20 11:27:00,
2013-04-20 07:32:00,46.1,42.1,29.96,WNW,294,0.0,0.0,86,0.00,,,0.07,LWC V2.00 B2112,2013-04-20 11:32:00,
2013-04-20 07:37:00,46.1,41.8,29.96,WNW,294,0.0,0.0,85,0.00,,,0.07,LWC V2.00 B2112,2013-04-20 11:37:00,
2013-04-20 07:42:00,46.2,41.9,29.96,WNW,294,0.0,0.0,85,0.00,,,0.07,LWC V2.00 B2112,2013-04-20 11:42:00,
2013-04-20 07:47:00,46.2,42.2,29.97,WNW,294,0.0,0.0,86,0.00,,,0.07,LWC V2.00 B2112,2013-04-20 11:47:00,
2013-04-20 07:52:00,46.4,42.1,29.97,WNW,294,0.0,0.0,85,0.00,,,0.07,LWC V2.00 B2112,2013-04-20 11:52:00,
2013-04-20 07:57:00,46.5,42.2,29.97,WNW,293,0.0,0.0,85,0.00,,,0.07,LWC V2.00 B2112,2013-04-20 11:57:00,
2013-04-20 08:02:00,46.5,41.9,29.98,WNW,293,0.0,0.0,84,0.00,,,0.07,LWC V2.00 B2112,2013-04-20 12:02:00,
2013-04-20 08:07:00,46.7,42.1,29.98,WNW,293,0.0,0.0,84,0.00,,,0.07,LWC V2.00 B2112,2013-04-20 12:07:00,
2013-04-20 08:12:00,46.8,41.3,29.98,WNW,294,0.0,0.0,81,0.00,,,0.07,LWC V2.00 B2112,2013-04-20 12:12:00,
2013-04-20 08:17:00,47.0,42.1,29.99,WNW,295,0.0,0.0,83,0.00,,,0.07,LWC V2.00 B2112,2013-04-20 12:17:00,
2013-04-20 08:22:00,47.1,41.6,29.99,WNW,294,0.0,0.0,81,0.00,,,0.07,LWC V2.00 B2112,2013-04-20 12:22:00,
2013-04-20 08:27:00,47.3,41.4,29.99,WNW,294,0.0,0.0,80,0.00,,,0.07,LWC V2.00 B2112,2013-04-20 12:27:00,
2013-04-20 08:32:00,47.4,41.9,29.99,WNW,294,0.0,0.0,81,0.00,,,0.07,LWC V2.00 B2112,2013-04-20 12:32:00,
2013-04-20 08:37:00,47.7,41.8,29.99,WNW,294,0.0,0.0,80,0.00,,,0.07,LWC V2.00 B2112,2013-04-20 12:37:00,
2013-04-20 08:42:00,47.7,40.8,29.99,WNW,294,0.0,0.0,77,0.00,,,0.07,LWC V2.00 B2112,2013-04-20 12:42:00,
2013-04-20 08:47:00,48.0,41.1,30.00,WNW,294,0.0,0.0,77,0.00,,,0.07,LWC V2.00 B2112,2013-04-20 12:47:00,
2013-04-20 08:52:00,48.2,41.0,30.00,SW,236,0.0,0.0,76,0.00,,,0.07,LWC V2.00 B2112,2013-04-20 12:52:00,
2013-04-20 08:57:00,48.3,41.1,30.00,West,272,0.0,0.0,76,0.00,,,0.07,LWC V2.00 B2112,2013-04-20 12:57:00,
2013-04-20 09:02:00,48.5,39.9,30.00,NNW,343,0.0,0.0,72,0.00,,,0.07,LWC V2.00 B2112,2013-04-20 13:02:00,
2013-04-20 09:07:00,48.5,39.9,30.00,North,4,0.0,0.0,72,0.00,,,0.07,LWC V2.00 B2112,2013-04-20 13:07:00,
2013-04-20 09:12:00,48.5,40.2,30.00,WNW,295,0.0,0.0,73,0.00,,,0.07,LWC V2.00 B2112,2013-04-20 13:12:00,
2013-04-20 09:17:00,48.6,39.6,30.01,WNW,287,0.0,0.0,71,0.00,,,0.07,LWC V2.00 B2112,2013-04-20 13:17:00,
2013-04-20 09:22:00,48.6,39.6,30.01,SW,235,0.0,0.0,71,0.00,,,0.07,LWC V2.00 B2112,2013-04-20 13:22:00,
2013-04-20 09:27:00,48.8,39.5,30.01,WSW,258,0.0,0.0,70,0.00,,,0.07,LWC V2.00 B2112,2013-04-20 13:27:00,
2013-04-20 09:32:00,48.8,39.1,30.02,SW,221,0.0,0.0,69,0.00,,,0.07,LWC V2.00 B2112,2013-04-20 13:32:00,
2013-04-20 09:37:00,48.8,39.5,30.02,NW,306,0.0,0.0,70,0.00,,,0.07,LWC V2.00 B2112,2013-04-20 13:37:00,
2013-04-20 09:42:00,48.6,39.3,30.02,West,277,0.0,0.0,70,0.00,,,0.07,LWC V2.00 B2112,2013-04-20 13:42:00,
2013-04-20 09:47:00,48.8,38.3,30.02,North,1,0.0,0.0,67,0.00,,,0.07,LWC V2.00 B2112,2013-04-20 13:47:00,
2013-04-20 09:52:00,49.1,38.6,30.02,WNW,300,0.0,0.0,67,0.00,,,0.07,LWC V2.00 B2112,2013-04-20 13:52:00,
2013-04-20 09:57:00,49.1,37.8,30.02,West,262,0.0,0.0,65,0.00,,,0.07,LWC V2.00 B2112,2013-04-20 13:57:00,
2013-04-20 10:02:00,49.1,38.6,30.03,WNW,297,0.0,0.0,67,0.00,,,0.07,LWC V2.00 B2112,2013-04-20 14:02:00,
2013-04-20 10:07:00,49.6,39.9,30.03,West,264,0.0,0.0,69,0.00,,,0.07,LWC V2.00 B2112,2013-04-20 14:07:00,
2013-04-20 10:12:00,50.5,38.4,30.03,NNW,336,0.0,0.0,63,0.00,,,0.07,LWC V2.00 B2112,2013-04-20 14:12:00,
2013-04-20 10:17:00,51.3,37.9,30.03,WNW,283,5.0,5.0,60,0.00,,,0.07,LWC V2.00 B2112,2013-04-20 14:17:00,
2013-04-20 10:22:00,51.7,37.4,30.03,WNW,300,0.0,4.0,58,0.00,,,0.07,LWC V2.00 B2112,2013-04-20 14:22:00,
2013-04-20 10:27:00,52.3,35.7,30.03,NNE,15,0.0,0.0,53,0.00,,,0.07,LWC V2.00 B2112,2013-04-20 14:27:00,
2013-04-20 10:32:00,53.1,35.9,30.03,WNW,301,0.0,9.0,52,0.00,,,0.07,LWC V2.00 B2112,2013-04-20 14:32:00,
2013-04-20 10:37:00,52.9,34.3,30.03,WNW,303,0.0,5.0,49,0.00,,,0.07,LWC V2.00 B2112,2013-04-20 14:37:00,
2013-04-20 10:42:00,53.3,36.6,30.03,SSW,212,0.0,0.0,53,0.00,,,0.07,LWC V2.00 B2112,2013-04-20 14:42:00,
2013-04-20 10:47:00,53.8,35.1,30.04,West,275,6.0,7.0,49,0.00,,,0.07,LWC V2.00 B2112,2013-04-20 14:47:00,
2013-04-20 10:52:00,54.4,35.6,30.04,WNW,295,6.0,6.0,49,0.00,,,0.07,LWC V2.00 B2112,2013-04-20 14:52:00,
2013-04-20 10:57:00,54.4,36.2,30.04,East,90,0.0,0.0,50,0.00,,,0.07,LWC V2.00 B2112,2013-04-20 14:57:00,
2013-04-20 11:02:00,54.7,33.8,30.03,NNW,338,0.0,0.0,45,0.00,,,0.07,LWC V2.00 B2112,2013-04-20 15:02:00,
2013-04-20 11:07:00,54.7,33.2,30.03,WSW,240,1.0,10.0,44,0.00,,,0.07,LWC V2.00 B2112,2013-04-20 15:07:00,
2013-04-20 11:12:00,54.5,31.9,30.03,NW,319,0.0,0.0,42,0.00,,,0.07,LWC V2.00 B2112,2013-04-20 15:12:00,
2013-04-20 11:17:00,55.1,33.0,30.04,NW,311,0.0,0.0,43,0.00,,,0.07,LWC V2.00 B2112,2013-04-20 15:17:00,
2013-04-20 11:22:00,55.6,32.9,30.04,WNW,295,0.0,1.0,42,0.00,,,0.07,LWC V2.00 B2112,2013-04-20 15:22:00,
2013-04-20 11:27:00,55.7,34.1,30.04,North,9,0.0,1.0,44,0.00,,,0.07,LWC V2.00 B2112,2013-04-20 15:27:00,
2013-04-20 11:32:00,55.7,34.1,30.03,WNW,282,0.0,0.0,44,0.00,,,0.07,LWC V2.00 B2112,2013-04-20 15:32:00,
2013-04-20 11:37:00,55.7,34.1,30.03,NW,315,0.0,5.0,44,0.00,,,0.07,LWC V2.00 B2112,2013-04-20 15:37:00,
2013-04-20 11:42:00,55.4,33.3,30.03,NW,311,0.0,1.0,43,0.00,,,0.07,LWC V2.00 B2112,2013-04-20 15:42:00,
2013-04-20 11:47:00,55.3,33.8,30.04,NNE,24,0.0,0.0,44,0.00,,,0.07,LWC V2.00 B2112,2013-04-20 15:47:00,
2013-04-20 11:52:00,55.6,34.6,30.04,WSW,238,0.0,0.0,45,0.00,,,0.07,LWC V2.00 B2112,2013-04-20 15:52:00,
2013-04-20 11:57:00,56.0,32.6,30.04,West,273,0.0,3.0,41,0.00,,,0.07,LWC V2.00 B2112,2013-04-20 15:57:00,
2013-04-20 12:02:00,55.9,33.7,30.04,South,188,0.0,0.0,43,0.00,,,0.07,LWC V2.00 B2112,2013-04-20 16:02:00,
2013-04-20 12:07:00,56.0,33.8,30.04,WSW,257,0.0,3.0,43,0.00,,,0.07,LWC V2.00 B2112,2013-04-20 16:07:00,
2013-04-20 12:12:00,56.2,31.6,30.04,WSW,252,0.0,0.0,39,0.00,,,0.07,LWC V2.00 B2112,2013-04-20 16:12:00,
2013-04-20 12:17:00,56.7,33.3,30.03,ENE,63,0.0,11.0,41,0.00,,,0.07,LWC V2.00 B2112,2013-04-20 16:17:00,
2013-04-20 12:22:00,56.9,35.2,30.03,North,1,0.0,2.0,44,0.00,,,0.07,LWC V2.00 B2112,2013-04-20 16:22:00,
2013-04-20 12:27:00,57.0,34.1,30.03,NNW,338,0.0,0.0,42,0.00,,,0.07,LWC V2.00 B2112,2013-04-20 16:27:00,
2013-04-20 12:32:00,56.9,32.2,30.03,NE,53,0.0,1.0,39,0.00,,,0.07,LWC V2.00 B2112,2013-04-20 16:32:00,
2013-04-20 12:37:00,56.6,33.8,30.03,NNE,27,0.0,0.0,42,0.00,,,0.07,LWC V2.00 B2112,2013-04-20 16:37:00,
2013-04-20 12:42:00,56.6,31.9,30.03,West,265,0.0,4.0,39,0.00,,,0.07,LWC V2.00 B2112,2013-04-20 16:42:00,
2013-04-20 12:47:00,56.9,32.8,30.03,WNW,297,0.0,1.0,40,0.00,,,0.07,LWC V2.00 B2112,2013-04-20 16:47:00,
2013-04-20 12:52:00,57.2,32.5,30.03,East,88,0.0,2.0,39,0.00,,,0.07,LWC V2.00 B2112,2013-04-20 16:52:00,
2013-04-20 12:57:00,57.5,32.1,30.03,WNW,302,0.0,3.0,38,0.00,,,0.07,LWC V2.00 B2112,2013-04-20 16:57:00,
2013-04-20 13:02:00,57.5,34.0,30.03,ENE,71,0.0,0.0,41,0.00,,,0.07,LWC V2.00 B2112,2013-04-20 17:02:00,
2013-04-20 13:07:00,57.8,34.3,30.03,WSW,250,0.0,0.0,41,0.00,,,0.07,LWC V2.00 B2112,2013-04-20 17:07:00,
2013-04-20 13:12:00,57.8,33.0,30.03,West,271,0.0,0.0,39,0.00,,,0.07,LWC V2.00 B2112,2013-04-20 17:12:00,
2013-04-20 13:17:00,57.8,33.0,30.03,WNW,288,0.0,0.0,39,0.00,,,0.07,LWC V2.00 B2112,2013-04-20 17:17:00,
2013-04-20 13:22:00,57.8,34.9,30.03,SW,236,0.0,0.0,42,0.00,,,0.07,LWC V2.00 B2112,2013-04-20 17:22:00,
2013-04-20 13:27:00,58.3,34.7,30.03,SW,219,0.0,0.0,41,0.00,,,0.07,LWC V2.00 B2112,2013-04-20 17:27:00,
2013-04-20 13:32:00,58.7,36.3,30.03,NW,304,0.0,0.0,43,0.00,,,0.07,LWC V2.00 B2112,2013-04-20 17:32:00,
2013-04-20 13:37:00,59.3,35.0,30.03,West,266,0.0,0.0,40,0.00,,,0.07,LWC V2.00 B2112,2013-04-20 17:37:00,
2013-04-20 13:42:00,59.8,32.8,30.03,WSW,245,0.0,0.0,36,0.00,,,0.07,LWC V2.00 B2112,2013-04-20 17:42:00,
2013-04-20 13:47:00,59.6,37.7,30.03,NW,320,0.0,0.0,44,0.00,,,0.07,LWC V2.00 B2112,2013-04-20 17:47:00,
2013-04-20 13:52:00,59.6,35.9,30.03,East,90,0.0,0.0,41,0.00,,,0.07,LWC V2.00 B2112,2013-04-20 17:52:00,
2013-04-20 13:57:00,59.2,35.5,30.03,SSE,155,0.0,0.0,41,0.00,,,0.07,LWC V2.00 B2112,2013-04-20 17:57:00,
2013-04-20 14:02:00,59.5,32.5,30.03,ESE,111,0.0,0.0,36,0.00,,,0.07,LWC V2.00 B2112,2013-04-20 18:02:00,
2013-04-20 14:07:00,59.8,36.1,30.03,WNW,293,0.0,0.0,41,0.00,,,0.07,LWC V2.00 B2112,2013-04-20 18:07:00,
2013-04-20 14:12:00,59.9,34.9,30.03,WSW,247,0.0,0.0,39,0.00,,,0.07,LWC V2.00 B2112,2013-04-20 18:12:00,
2013-04-20 14:17:00,59.9,37.3,30.03,SW,220,0.0,0.0,43,0.00,,,0.07,LWC V2.00 B2112,2013-04-20 18:17:00,
2013-04-20 14:22:00,60.4,36.0,30.03,ENE,73,0.0,0.0,40,0.00,,,0.07,LWC V2.00 B2112,2013-04-20 18:22:00,
2013-04-20 14:27:00,60.2,35.2,30.03,WNW,299,0.0,0.0,39,0.00,,,0.07,LWC V2.00 B2112,2013-04-20 18:27:00,
2013-04-20 14:32:00,59.9,34.2,30.03,WSW,243,0.0,0.0,38,0.00,,,0.07,LWC V2.00 B2112,2013-04-20 18:32:00,
2013-04-20 14:37:00,59.8,31.4,30.03,SSW,206,0.0,0.0,34,0.00,,,0.07,LWC V2.00 B2112,2013-04-20 18:37:00,
2013-04-20 14:42:00,60.5,39.1,30.03,SSW,207,0.0,0.0,45,0.00,,,0.07,LWC V2.00 B2112,2013-04-20 18:42:00,
2013-04-20 14:47:00,60.7,33.6,30.02,WSW,249,0.0,0.0,36,0.00,,,0.07,LWC V2.00 B2112,2013-04-20 18:47:00,
2013-04-20 14:52:00,60.7,32.9,30.02,NW,321,0.0,3.0,35,0.00,,,0.07,LWC V2.00 B2112,2013-04-20 18:52:00,
2013-04-20 14:57:00,60.5,32.0,30.02,West,269,0.0,0.0,34,0.00,,,0.07,LWC V2.00 B2112,2013-04-20 18:57:00,
2013-04-20 15:02:00,60.5,33.4,30.02,SW,234,0.0,0.0,36,0.00,,,0.07,LWC V2.00 B2112,2013-04-20 19:02:00,
2013-04-20 15:07:00,60.7,32.9,30.02,WSW,249,0.0,0.0,35,0.00,,,0.07,LWC V2.00 B2112,2013-04-20 19:07:00,
2013-04-20 15:12:00,61.2,32.6,30.02,WNW,299,0.0,0.0,34,0.00,,,0.07,LWC V2.00 B2112,2013-04-20 19:12:00,
2013-04-20 15:17:00,61.3,35.5,30.02,East,101,0.0,0.0,38,0.00,,,0.07,LWC V2.00 B2112,2013-04-20 19:17:00,
2013-04-20 15:22:00,61.2,34.7,30.02,WNW,293,0.0,0.0,37,0.00,,,0.07,LWC V2.00 B2112,2013-04-20 19:22:00,
2013-04-20 15:27:00,60.7,29.9,30.02,East,89,0.0,2.0,31,0.00,,,0.07,LWC V2.00 B2112,2013-04-20 19:27:00,
2013-04-20 15:32:00,60.7,32.9,30.02,NNW,347,0.0,0.0,35,0.00,,,0.07,LWC V2.00 B2112,2013-04-20 19:32:00,
2013-04-20 15:37:00,60.9,33.8,30.02,SE,125,0.0,0.0,36,0.00,,,0.07,LWC V2.00 B2112,2013-04-20 19:37:00,
2013-04-20 15:42:00,61.5,34.3,30.02,North,359,0.0,0.0,36,0.00,,,0.07,LWC V2.00 B2112,2013-04-20 19:42:00,
2013-04-20 15:52:00,62.4,35.1,30.02,West,261,0.0,0.0,36,0.00,,,0.07,LWC V2.00 B2112,2013-04-20 19:52:00,
2013-04-20 15:57:00,62.7,30.8,30.02,WNW,288,0.0,0.0,30,0.00,,,0.07,LWC V2.00 B2112,2013-04-20 19:57:00,
2013-04-20 16:02:00,62.4,36.5,30.02,NNW,347,0.0,1.0,38,0.00,,,0.07,LWC V2.00 B2112,2013-04-20 20:02:00,
2013-04-20 16:07:00,62.6,35.3,30.02,WSW,245,0.0,0.0,36,0.00,,,0.07,LWC V2.00 B2112,2013-04-20 20:07:00,
2013-04-20 16:12:00,62.7,34.7,30.02,WSW,244,0.0,0.0,35,0.00,,,0.07,LWC V2.00 B2112,2013-04-20 20:12:00,
2013-04-20 16:17:00,62.9,36.9,30.02,West,274,0.0,0.0,38,0.00,,,0.07,LWC V2.00 B2112,2013-04-20 20:17:00,
2013-04-20 16:22:00,62.9,34.1,30.02,WSW,257,0.0,0.0,34,0.00,,,0.07,LWC V2.00 B2112,2013-04-20 20:22:00,
2013-04-20 16:27:00,62.9,32.6,30.02,WNW,298,0.0,0.0,32,0.00,,,0.07,LWC V2.00 B2112,2013-04-20 20:27:00,
2013-04-20 16:32:00,62.7,31.6,30.02,North,359,0.0,0.0,31,0.00,,,0.07,LWC V2.00 B2112,2013-04-20 20:32:00,
2013-04-20 16:37:00,63.1,36.4,30.02,NW,326,0.0,0.0,37,0.00,,,0.07,LWC V2.00 B2112,2013-04-20 20:37:00,
2013-04-20 16:42:00,63.2,37.2,30.02,WSW,245,0.0,0.0,38,0.00,,,0.07,LWC V2.00 B2112,2013-04-20 20:42:00,
2013-04-20 16:47:00,63.4,32.2,30.03,WSW,238,0.0,0.0,31,0.00,,,0.07,LWC V2.00 B2112,2013-04-20 20:47:00,
2013-04-20 16:52:00,63.2,32.9,30.03,WSW,238,0.0,0.0,32,0.00,,,0.07,LWC V2.00 B2112,2013-04-20 20:52:00,
2013-04-20 16:57:00,63.5,32.3,30.03,WSW,241,0.0,0.0,31,0.00,,,0.07,LWC V2.00 B2112,2013-04-20 20:57:00,
2013-04-20 17:02:00,63.4,30.6,30.03,West,270,0.0,0.0,29,0.00,,,0.07,LWC V2.00 B2112,2013-04-20 21:02:00,
2013-04-20 17:07:00,63.4,35.3,30.03,WSW,240,0.0,0.0,35,0.00,,,0.07,LWC V2.00 B2112,2013-04-20 21:07:00,
2013-04-20 17:12:00,62.9,31.8,30.03,NE,56,0.0,0.0,31,0.00,,,0.07,LWC V2.00 B2112,2013-04-20 21:12:00,
2013-04-20 17:17:00,62.9,32.6,30.03,NW,323,0.0,0.0,32,0.00,,,0.07,LWC V2.00 B2112,2013-04-20 21:17:00,
2013-04-20 17:22:00,62.9,33.4,30.03,North,4,0.0,0.0,33,0.00,,,0.07,LWC V2.00 B2112,2013-04-20 21:22:00,
2013-04-20 17:27:00,63.2,29.6,30.03,SSE,164,0.0,0.0,28,0.00,,,0.07,LWC V2.00 B2112,2013-04-20 21:27:00,
2013-04-20 17:32:00,63.2,32.1,30.03,WSW,243,0.0,0.0,31,0.00,,,0.07,LWC V2.00 B2112,2013-04-20 21:32:00,
2013-04-20 17:37:00,63.7,33.3,30.03,WNW,295,0.0,0.0,32,0.00,,,0.07,LWC V2.00 B2112,2013-04-20 21:37:00,
2013-04-20 17:42:00,63.5,33.1,30.03,WNW,287,0.0,0.0,32,0.00,,,0.07,LWC V2.00 B2112,2013-04-20 21:42:00,
2013-04-20 17:47:00,63.5,29.8,30.04,WNW,288,0.0,0.0,28,0.00,,,0.07,LWC V2.00 B2112,2013-04-20 21:47:00,
2013-04-20 17:52:00,63.7,30.8,30.04,WSW,242,0.0,0.0,29,0.00,,,0.07,LWC V2.00 B2112,2013-04-20 21:52:00,
2013-04-20 17:57:00,63.2,31.3,30.04,SW,214,0.0,0.0,30,0.00,,,0.07,LWC V2.00 B2112,2013-04-20 21:57:00,
2013-04-20 18:02:00,62.9,29.3,30.05,SSE,161,0.0,0.0,28,0.00,,,0.07,LWC V2.00 B2112,2013-04-20 22:02:00,
2013-04-20 18:07:00,63.1,30.3,30.05,West,272,0.0,0.0,29,0.00,,,0.07,LWC V2.00 B2112,2013-04-20 22:07:00,
2013-04-20 18:12:00,63.1,32.8,30.05,WSW,255,0.0,0.0,32,0.00,,,0.07,LWC V2.00 B2112,2013-04-20 22:12:00,
2013-04-20 18:17:00,63.4,33.0,30.06,WSW,257,0.0,0.0,32,0.00,,,0.07,LWC V2.00 B2112,2013-04-20 22:17:00,
2013-04-20 18:22:00,63.4,32.2,30.06,SSW,193,0.0,0.0,31,0.00,,,0.07,LWC V2.00 B2112,2013-04-20 22:22:00,
2013-04-20 18:27:00,62.9,31.8,30.06,West,271,0.0,0.0,31,0.00,,,0.07,LWC V2.00 B2112,2013-04-20 22:27:00,
2013-04-20 18:32:00,62.4,31.4,30.07,West,262,0.0,0.0,31,0.00,,,0.07,LWC V2.00 B2112,2013-04-20 22:32:00,
2013-04-20 18:37:00,62.1,31.9,30.07,North,359,0.0,1.0,32,0.00,,,0.07,LWC V2.00 B2112,2013-04-20 22:37:00,
2013-04-20 18:42:00,62.0,34.7,30.07,WNW,297,0.0,0.0,36,0.00,,,0.07,LWC V2.00 B2112,2013-04-20 22:42:00,
2013-04-20 18:52:00,62.0,31.8,30.07,NW,308,0.0,0.0,32,0.00,,,0.07,LWC V2.00 B2112,2013-04-20 22:52:00,
2013-04-20 18:57:00,61.6,33.7,30.07,SSE,148,0.0,0.0,35,0.00,,,0.07,LWC V2.00 B2112,2013-04-20 22:57:00,
2013-04-20 19:02:00,61.3,32.7,30.07,NW,306,0.0,0.0,34,0.00,,,0.07,LWC V2.00 B2112,2013-04-20 23:02:00,
2013-04-20 19:07:00,60.7,31.4,30.07,SE,141,0.0,0.0,33,0.00,,,0.07,LWC V2.00 B2112,2013-04-20 23:07:00,
2013-04-20 19:12:00,60.2,33.1,30.07,SE,141,0.0,0.0,36,0.00,,,0.07,LWC V2.00 B2112,2013-04-20 23:12:00,
2013-04-20 19:17:00,59.9,31.5,30.07,NW,324,0.0,0.0,34,0.00,,,0.07,LWC V2.00 B2112,2013-04-20 23:17:00,
2013-04-20 19:22:00,59.5,37.0,30.07,NNW,328,0.0,0.0,43,0.00,,,0.07,LWC V2.00 B2112,2013-04-20 23:22:00,
2013-04-20 19:27:00,59.0,34.7,30.07,NNW,328,0.0,0.0,40,0.00,,,0.07,LWC V2.00 B2112,2013-04-20 23:27:00,
2013-04-20 19:32:00,58.6,35.6,30.08,NNW,328,0.0,0.0,42,0.00,,,0.07,LWC V2.00 B2112,2013-04-20 23:32:00,
2013-04-20 19:37:00,58.1,34.5,30.08,NNW,328,0.0,0.0,41,0.00,,,0.07,LWC V2.00 B2112,2013-04-20 23:37:00,
2013-04-20 19:42:00,57.6,35.3,30.08,NNW,328,0.0,0.0,43,0.00,,,0.07,LWC V2.00 B2112,2013-04-20 23:42:00,
2013-04-20 19:47:00,57.0,35.9,30.08,NNW,328,0.0,0.0,45,0.00,,,0.07,LWC V2.00 B2112,2013-04-20 23:47:00,
2013-04-20 19:52:00,56.3,35.2,30.08,NNW,328,0.0,0.0,45,0.00,,,0.07,LWC V2.00 B2112,2013-04-20 23:52:00,
2013-04-20 19:57:00,55.6,35.7,30.08,NNW,328,0.0,0.0,47,0.00,,,0.07,LWC V2.00 B2112,2013-04-20 23:57:00,
2013-04-20 20:02:00,55.0,35.7,30.10,NNW,328,0.0,0.0,48,0.00,,,0.07,LWC V2.00 B2112,2013-04-21 00:02:00,
2013-04-20 20:07:00,54.4,37.6,30.10,NNW,328,0.0,0.0,53,0.00,,,0.07,LWC V2.00 B2112,2013-04-21 00:07:00,
2013-04-20 20:12:00,53.8,37.1,30.10,NNW,328,0.0,0.0,53,0.00,,,0.07,LWC V2.00 B2112,2013-04-21 00:12:00,
2013-04-20 20:17:00,53.2,37.0,30.12,NNW,328,0.0,0.0,54,0.00,,,0.07,LWC V2.00 B2112,2013-04-21 00:17:00,
2013-04-20 20:22:00,52.9,38.5,30.12,NNW,328,0.0,0.0,58,0.00,,,0.07,LWC V2.00 B2112,2013-04-21 00:22:00,
2013-04-20 20:27:00,52.6,39.1,30.12,NNW,328,0.0,0.0,60,0.00,,,0.07,LWC V2.00 B2112,2013-04-21 00:27:00,
2013-04-20 20:32:00,52.2,38.3,30.13,NNW,328,0.0,0.0,59,0.00,,,0.07,LWC V2.00 B2112,2013-04-21 00:32:00,
2013-04-20 20:37:00,51.9,38.9,30.13,NNW,328,0.0,0.0,61,0.00,,,0.07,LWC V2.00 B2112,2013-04-21 00:37:00,
2013-04-20 20:42:00,51.6,39.0,30.13,NNW,328,0.0,0.0,62,0.00,,,0.07,LWC V2.00 B2112,2013-04-21 00:42:00,
2013-04-20 20:47:00,51.4,39.6,30.14,NNW,328,0.0,0.0,64,0.00,,,0.07,LWC V2.00 B2112,2013-04-21 00:47:00,
2013-04-20 20:52:00,51.1,38.9,30.14,NNW,328,0.0,0.0,63,0.00,,,0.07,LWC V2.00 B2112,2013-04-21 00:52:00,
2013-04-20 20:57:00,50.8,38.7,30.14,NNW,328,0.0,0.0,63,0.00,,,0.07,LWC V2.00 B2112,2013-04-21 00:57:00,
2013-04-20 21:02:00,50.5,38.8,30.15,NNW,328,0.0,0.0,64,0.00,,,0.07,LWC V2.00 B2112,2013-04-21 01:02:00,
2013-04-20 21:07:00,50.4,39.5,30.15,NNW,328,0.0,0.0,66,0.00,,,0.07,LWC V2.00 B2112,2013-04-21 01:07:00,
2013-04-20 21:12:00,50.1,40.3,30.15,NNW,328,0.0,0.0,69,0.00,,,0.07,LWC V2.00 B2112,2013-04-21 01:12:00,
2013-04-20 21:17:00,49.8,39.7,30.15,NNW,328,0.0,0.0,68,0.00,,,0.07,LWC V2.00 B2112,2013-04-21 01:17:00,
2013-04-20 21:22:00,49.4,39.7,30.15,NNW,328,0.0,0.0,69,0.00,,,0.07,LWC V2.00 B2112,2013-04-21 01:22:00,
2013-04-20 21:27:00,49.2,39.5,30.15,NNW,328,0.0,0.0,69,0.00,,,0.07,LWC V2.00 B2112,2013-04-21 01:27:00,
2013-04-20 21:32:00,49.1,39.4,30.17,NNW,328,0.0,0.0,69,0.00,,,0.07,LWC V2.00 B2112,2013-04-21 01:32:00,
2013-04-20 21:37:00,49.1,39.4,30.17,NNW,328,0.0,0.0,69,0.00,,,0.07,LWC V2.00 B2112,2013-04-21 01:37:00,
2013-04-20 21:42:00,48.8,39.5,30.17,NNW,328,0.0,0.0,70,0.00,,,0.07,LWC V2.00 B2112,2013-04-21 01:42:00,
2013-04-20 21:47:00,48.6,39.6,30.16,NNW,328,0.0,0.0,71,0.00,,,0.07,LWC V2.00 B2112,2013-04-21 01:47:00,
2013-04-20 21:52:00,48.3,39.7,30.16,NNW,328,0.0,0.0,72,0.00,,,0.07,LWC V2.00 B2112,2013-04-21 01:52:00,
2013-04-20 21:57:00,48.0,39.1,30.16,NNW,328,0.0,0.0,71,0.00,,,0.07,LWC V2.00 B2112,2013-04-21 01:57:00,
2013-04-20 22:02:00,47.9,38.6,30.17,NNW,328,0.0,0.0,70,0.00,,,0.07,LWC V2.00 B2112,2013-04-21 02:02:00,
2013-04-20 22:07:00,48.0,38.7,30.17,NNW,328,0.0,0.0,70,0.00,,,0.07,LWC V2.00 B2112,2013-04-21 02:07:00,
2013-04-20 22:12:00,48.0,39.1,30.17,NNW,328,0.0,0.0,71,0.00,,,0.07,LWC V2.00 B2112,2013-04-21 02:12:00,
2013-04-20 22:17:00,47.9,39.3,30.17,NNW,328,0.0,0.0,72,0.00,,,0.07,LWC V2.00 B2112,2013-04-21 02:17:00,
2013-04-20 22:22:00,47.7,39.1,30.17,NNW,328,0.0,0.0,72,0.00,,,0.07,LWC V2.00 B2112,2013-04-21 02:22:00,
2013-04-20 22:27:00,47.4,39.5,30.17,NNW,328,0.0,0.0,74,0.00,,,0.07,LWC V2.00 B2112,2013-04-21 02:27:00,
2013-04-20 22:32:00,47.3,39.4,30.18,NNW,328,0.0,0.0,74,0.00,,,0.07,LWC V2.00 B2112,2013-04-21 02:32:00,
2013-04-20 22:37:00,47.1,39.2,30.18,NNW,328,0.0,0.0,74,0.00,,,0.07,LWC V2.00 B2112,2013-04-21 02:37:00,
2013-04-20 22:42:00,47.0,39.1,30.18,NNW,328,0.0,0.0,74,0.00,,,0.07,LWC V2.00 B2112,2013-04-21 02:42:00,
2013-04-20 22:47:00,46.8,39.0,30.18,NNW,328,0.0,0.0,74,0.00,,,0.07,LWC V2.00 B2112,2013-04-21 02:47:00,
2013-04-20 22:52:00,46.7,38.5,30.18,NNW,328,0.0,0.0,73,0.00,,,0.07,LWC V2.00 B2112,2013-04-21 02:52:00,
2013-04-20 22:57:00,46.5,37.6,30.18,NNW,328,0.0,0.0,71,0.00,,,0.07,LWC V2.00 B2112,2013-04-21 02:57:00,
2013-04-20 23:02:00,46.4,37.9,30.18,NE,51,0.0,0.0,72,0.00,,,0.07,LWC V2.00 B2112,2013-04-21 03:02:00,
2013-04-20 23:07:00,46.1,37.6,30.18,NE,51,0.0,0.0,72,0.00,,,0.07,LWC V2.00 B2112,2013-04-21 03:07:00,
2013-04-20 23:12:00,46.1,38.3,30.18,ENE,57,0.0,0.0,74,0.00,,,0.07,LWC V2.00 B2112,2013-04-21 03:12:00,
2013-04-20 23:17:00,46.2,39.4,30.18,ENE,57,0.0,0.0,77,0.00,,,0.07,LWC V2.00 B2112,2013-04-21 03:17:00,
2013-04-20 23:22:00,46.2,39.4,30.18,ENE,57,0.0,0.0,77,0.00,,,0.07,LWC V2.00 B2112,2013-04-21 03:22:00,
2013-04-20 23:27:00,46.2,39.7,30.18,ENE,57,0.0,0.0,78,0.00,,,0.07,LWC V2.00 B2112,2013-04-21 03:27:00,
2013-04-20 23:32:00,46.2,40.1,30.18,ENE,57,0.0,0.0,79,0.00,,,0.07,LWC V2.00 B2112,2013-04-21 03:32:00,
2013-04-20 23:37:00,46.4,40.6,30.18,ENE,57,0.0,0.0,80,0.00,,,0.07,LWC V2.00 B2112,2013-04-21 03:37:00,
2013-04-20 23:42:00,46.4,40.6,30.18,ENE,57,0.0,0.0,80,0.00,,,0.07,LWC V2.00 B2112,2013-04-21 03:42:00,
2013-04-20 23:47:00,46.4,40.6,30.18,ENE,57,0.0,0.0,80,0.00,,,0.07,LWC V2.00 B2112,2013-04-21 03:47:00,
2013-04-20 23:52:00,46.5,41.0,30.18,ENE,57,0.0,0.0,81,0.00,,,0.07,LWC V2.00 B2112,2013-04-21 03:52:00,
2013-04-20 23:57:00,46.4,40.9,30.18,ENE,57,0.0,0.0,81,0.00,,,0.07,LWC V2.00 B2112,2013-04-21 03:57:00,